createdAt,value
2023-03-01T00:01:35.382Z,2.88
2023-03-01T00:04:03.451Z,2.40
2023-03-01T00:06:30.637Z,2.38
2023-03-01T00:08:58.269Z,1.27
2023-03-01T00:11:28.597Z,1.65
2023-03-01T00:14:02.022Z,2.67
2023-03-01T00:17:02.547Z,2.45
2023-03-01T00:19:34.344Z,1.77
2023-03-01T00:22:11.460Z,1.70
2023-03-01T00:25:08.526Z,1.83
2023-03-01T00:27:36.260Z,1.38
2023-03-01T00:30:04.140Z,1.42
2023-03-01T00:32:45.387Z,1.63
2023-03-01T00:35:13.144Z,1.75
2023-03-01T00:37:44.180Z,1.77
2023-03-01T00:40:18.419Z,2.03
2023-03-01T00:42:48.745Z,1.42
2023-03-01T00:45:19.312Z,1.20
2023-03-01T00:48:02.660Z,1.45
2023-03-01T00:50:31.530Z,1.40
2023-03-01T00:53:02.631Z,1.38
2023-03-01T00:55:33.212Z,1.00
2023-03-01T00:58:06.042Z,1.27
2023-03-01T01:03:42.382Z,0.70
2023-03-01T01:06:15.664Z,1.00
2023-03-01T01:08:45.679Z,0.70
2023-03-01T01:11:16.976Z,0.68
2023-03-01T01:14:12.050Z,1.15
2023-03-01T01:16:40.581Z,0.70
2023-03-01T01:21:50.386Z,0.88
2023-03-01T01:26:51.117Z,1.13
2023-03-01T01:29:31.362Z,2.85
2023-03-01T01:31:58.939Z,1.45
2023-03-01T01:34:26.790Z,1.08
2023-03-01T01:36:57.769Z,2.08
2023-03-01T01:39:25.897Z,1.02
2023-03-01T01:41:56.538Z,0.90
2023-03-01T01:47:40.287Z,0.50
2023-03-01T01:50:21.973Z,0.68
2023-03-01T01:53:42.713Z,0.90
2023-03-01T01:56:13.488Z,0.80
2023-03-01T01:58:43.963Z,1.00
2023-03-01T02:01:14.172Z,0.95
2023-03-01T02:03:50.185Z,0.77
2023-03-01T02:06:30.349Z,0.68
2023-03-01T02:09:03.524Z,0.85
2023-03-01T02:11:32.334Z,0.85
2023-03-01T02:14:00.710Z,0.25
2023-03-01T02:16:28.423Z,0.75
2023-03-01T02:19:02.459Z,1.23
2023-03-01T02:22:03.263Z,0.38
2023-03-01T02:24:43.512Z,0.50
2023-03-01T02:27:12.605Z,1.02
2023-03-01T02:30:05.416Z,0.52
2023-03-01T02:32:32.754Z,0.50
2023-03-01T02:35:00.436Z,0.32
2023-03-01T02:37:40.237Z,0.50
2023-03-01T02:40:13.046Z,0.60
2023-03-01T02:42:53.553Z,0.70
2023-03-01T02:45:24.419Z,0.60
2023-03-01T02:47:54.764Z,0.70
2023-03-01T02:50:55.886Z,0.68
2023-03-01T02:53:55.456Z,1.15
2023-03-01T02:56:22.624Z,0.70
2023-03-01T02:58:53.100Z,1.30
2023-03-01T03:01:21.737Z,1.40
2023-03-01T03:06:39.185Z,0.93
2023-03-01T03:09:10.224Z,1.63
2023-03-01T03:11:41.616Z,0.93
2023-03-01T03:17:12.466Z,1.20
2023-03-01T03:19:42.482Z,1.50
2023-03-01T03:25:15.437Z,0.88
2023-03-01T03:27:52.190Z,0.80
2023-03-01T03:30:24.197Z,1.17
2023-03-01T03:36:30.382Z,0.73
2023-03-01T03:39:03.847Z,1.30
2023-03-01T03:41:35.130Z,0.80
2023-03-01T03:44:03.037Z,0.80
2023-03-01T03:46:48.970Z,1.10
2023-03-01T03:49:25.479Z,1.40
2023-03-01T03:51:52.709Z,1.23
2023-03-01T03:54:19.523Z,0.98
2023-03-01T03:57:04.795Z,0.77
2023-03-01T03:59:33.683Z,1.52
2023-03-01T04:02:00.865Z,1.50
2023-03-01T04:04:31.078Z,2.00
2023-03-01T04:06:58.145Z,1.75
2023-03-01T04:09:41.209Z,1.70
2023-03-01T04:15:15.847Z,1.13
2023-03-01T04:21:11.706Z,0.60
2023-03-01T04:23:43.180Z,1.10
2023-03-01T04:26:40.238Z,0.98
2023-03-01T04:29:13.126Z,1.40
2023-03-01T04:31:53.585Z,1.13
2023-03-01T04:34:21.022Z,1.45
2023-03-01T04:36:51.593Z,0.93
2023-03-01T04:39:28.425Z,0.82
2023-03-01T04:42:33.976Z,0.90
2023-03-01T04:45:20.743Z,0.98
2023-03-01T04:48:20.517Z,1.33
2023-03-01T04:50:49.063Z,1.17
2023-03-01T04:53:30.594Z,0.70
2023-03-01T04:55:58.122Z,0.93
2023-03-01T04:58:26.730Z,0.82
2023-03-01T05:01:07.361Z,1.17
2023-03-01T05:03:35.050Z,1.02
2023-03-01T05:06:15.389Z,1.10
2023-03-01T05:08:44.191Z,1.33
2023-03-01T05:11:23.343Z,1.10
2023-03-01T05:13:56.006Z,1.15
2023-03-01T05:18:40.426Z,1.08
2023-03-01T05:19:27.181Z,1.77
2023-03-01T05:22:05.362Z,1.38
2023-03-01T05:27:34.850Z,1.67
2023-03-01T05:30:17.746Z,1.40
2023-03-01T05:32:50.778Z,1.00
2023-03-01T05:35:19.052Z,1.10
2023-03-01T05:40:39.145Z,1.27
2023-03-01T05:43:26.165Z,1.20
2023-03-01T05:46:17.575Z,1.90
2023-03-01T05:48:58.271Z,1.20
2023-03-01T05:51:25.249Z,1.15
2023-03-01T05:53:55.484Z,1.58
2023-03-01T05:56:28.974Z,1.30
2023-03-01T05:59:07.070Z,1.63
2023-03-01T06:01:35.891Z,1.35
2023-03-01T06:04:05.496Z,1.30
2023-03-01T06:06:48.696Z,1.70
2023-03-01T06:09:17.944Z,1.25
2023-03-01T06:11:45.166Z,1.58
2023-03-01T06:14:21.864Z,1.23
2023-03-01T06:17:16.027Z,1.33
2023-03-01T06:19:42.794Z,1.30
2023-03-01T06:22:11.390Z,0.85
2023-03-01T06:24:43.680Z,1.63
2023-03-01T06:27:13.731Z,1.52
2023-03-01T06:30:31.652Z,1.17
2023-03-01T06:33:46.674Z,1.27
2023-03-01T06:36:14.143Z,1.25
2023-03-01T06:38:41.825Z,1.20
2023-03-01T06:41:09.461Z,2.15
2023-03-01T06:43:48.609Z,2.28
2023-03-01T06:46:19.438Z,1.65
2023-03-01T06:48:53.374Z,1.65
2023-03-01T06:51:20.559Z,1.90
2023-03-01T06:53:51.717Z,1.47
2023-03-01T06:56:43.859Z,1.00
2023-03-01T06:59:12.074Z,1.52
2023-03-01T07:04:20.660Z,1.30
2023-03-01T07:07:44.492Z,2.17
2023-03-01T07:10:13.121Z,2.67
2023-03-01T07:12:40.232Z,2.28
2023-03-01T07:15:07.619Z,2.90
2023-03-01T07:17:34.465Z,3.10
2023-03-01T07:20:01.162Z,3.28
2023-03-01T07:22:28.023Z,3.75
2023-03-01T07:24:55.164Z,1.90
2023-03-01T07:27:21.890Z,2.83
2023-03-01T07:29:48.625Z,1.90
2023-03-01T07:32:15.463Z,2.92
2023-03-01T07:34:45.295Z,1.77
2023-03-01T07:37:12.423Z,1.83
2023-03-01T07:39:39.156Z,1.70
2023-03-01T07:42:06.050Z,1.20
2023-03-01T07:44:33.160Z,1.90
2023-03-01T07:47:00.239Z,1.13
2023-03-01T07:49:29.876Z,1.90
2023-03-01T07:51:57.568Z,1.98
2023-03-01T07:54:24.650Z,1.85
2023-03-01T07:56:51.463Z,1.35
2023-03-01T07:59:18.307Z,1.52
2023-03-01T08:01:47.914Z,1.55
2023-03-01T08:04:14.935Z,1.02
2023-03-01T08:06:42.241Z,1.52
2023-03-01T08:09:09.898Z,1.35
2023-03-01T08:11:36.718Z,1.05
2023-03-01T08:14:15.237Z,1.05
2023-03-01T08:16:42.110Z,1.20
2023-03-01T08:19:12.113Z,1.30
2023-03-01T08:21:39.706Z,1.00
2023-03-01T08:24:08.229Z,1.02
2023-03-01T08:26:35.165Z,1.10
2023-03-01T08:29:02.722Z,1.17
2023-03-01T08:31:33.674Z,1.13
2023-03-01T08:34:02.706Z,1.80
2023-03-01T08:36:45.762Z,1.88
2023-03-01T08:39:16.307Z,1.25
2023-03-01T08:41:43.533Z,1.27
2023-03-01T08:44:12.839Z,1.65
2023-03-01T08:46:42.169Z,2.63
2023-03-01T08:49:12.800Z,1.00
2023-03-01T08:51:39.880Z,1.98
2023-03-01T08:54:31.911Z,2.00
2023-03-01T08:57:28.491Z,2.22
2023-03-01T08:59:57.399Z,1.90
2023-03-01T09:02:24.445Z,1.55
2023-03-01T09:05:20.300Z,1.70
2023-03-01T09:08:00.403Z,1.40
2023-03-01T09:10:34.497Z,1.23
2023-03-01T09:13:14.436Z,1.17
2023-03-01T09:15:43.564Z,1.13
2023-03-01T09:18:14.271Z,1.33
2023-03-01T09:20:43.755Z,1.42
2023-03-01T09:23:20.279Z,1.55
2023-03-01T09:25:47.134Z,1.42
2023-03-01T09:28:29.184Z,1.63
2023-03-01T09:31:01.293Z,1.63
2023-03-01T09:33:33.422Z,1.05
2023-03-01T09:36:07.024Z,1.00
2023-03-01T09:42:24.626Z,6.20
2023-03-01T09:48:14.183Z,2.00
2023-03-01T09:50:44.201Z,1.33
2023-03-01T09:53:16.200Z,1.30
2023-03-01T09:56:00.316Z,1.15
2023-03-01T09:58:41.554Z,0.65
2023-03-01T10:01:17.834Z,0.93
2023-03-01T10:07:03.757Z,1.10
2023-03-01T10:10:36.242Z,0.60
2023-03-01T10:13:25.908Z,0.57
2023-03-01T10:16:11.796Z,1.58
2023-03-01T10:18:44.708Z,1.90
2023-03-01T10:21:30.140Z,1.90
2023-03-01T10:24:20.185Z,1.30
2023-03-01T10:26:57.255Z,1.20
2023-03-01T10:29:41.780Z,0.93
2023-03-01T10:32:12.624Z,1.00
2023-03-01T10:34:40.124Z,0.90
2023-03-01T10:37:36.047Z,1.00
2023-03-01T10:40:16.286Z,1.25
2023-03-01T10:42:51.349Z,0.80
2023-03-01T10:49:13.854Z,2.13
2023-03-01T10:52:42.509Z,3.08
2023-03-01T10:56:04.373Z,2.65
2023-03-01T10:58:42.784Z,2.78
2023-03-01T11:01:34.339Z,3.22
2023-03-01T11:04:07.337Z,1.73
2023-03-01T11:07:07.991Z,1.30
2023-03-01T11:10:56.088Z,1.63
2023-03-01T11:13:23.407Z,2.60
2023-03-01T11:16:06.586Z,5.47
2023-03-01T11:22:24.408Z,6.35
2023-03-01T11:25:07.345Z,3.80
2023-03-01T11:27:43.262Z,1.77
2023-03-01T11:34:15.576Z,2.90
2023-03-01T11:36:50.566Z,3.60
2023-03-01T11:39:33.660Z,2.25
2023-03-01T11:42:19.125Z,1.75
2023-03-01T11:44:50.863Z,1.90
2023-03-01T11:47:23.827Z,1.70
2023-03-01T11:49:56.900Z,1.70
2023-03-01T11:52:42.352Z,1.33
2023-03-01T11:55:33.995Z,0.90
2023-03-01T11:58:25.917Z,0.88
2023-03-01T12:01:15.982Z,2.08
2023-03-01T12:04:20.238Z,2.38
2023-03-01T12:07:02.753Z,2.20
2023-03-01T12:09:39.873Z,2.15
2023-03-01T12:12:33.336Z,2.35
2023-03-01T12:15:30.849Z,2.15
2023-03-01T12:20:42.809Z,2.00
2023-03-01T12:23:20.771Z,1.58
2023-03-01T12:26:24.759Z,2.03
2023-03-01T12:29:31.307Z,1.95
2023-03-01T12:32:25.673Z,3.42
2023-03-01T12:35:26.885Z,1.55
2023-03-01T12:38:14.742Z,2.67
2023-03-01T12:41:09.135Z,1.70
2023-03-01T12:47:47.135Z,0.52
2023-03-01T12:50:59.177Z,0.73
2023-03-01T12:54:12.019Z,0.95
2023-03-01T12:56:39.538Z,0.90
2023-03-01T12:59:35.762Z,1.15
2023-03-01T13:02:08.389Z,0.43
2023-03-01T13:05:05.594Z,1.10
2023-03-01T13:08:32.043Z,2.10
2023-03-01T13:11:35.456Z,1.73
2023-03-01T13:14:27.558Z,2.22
2023-03-01T13:16:55.962Z,2.00
2023-03-01T13:19:33.760Z,1.65
2023-03-01T13:22:03.240Z,1.10
2023-03-01T13:24:43.936Z,0.70
2023-03-01T13:27:35.790Z,0.80
2023-03-01T13:30:07.789Z,0.65
2023-03-01T13:32:44.378Z,0.63
2023-03-01T13:35:19.276Z,0.70
2023-03-01T13:37:50.088Z,1.50
2023-03-01T13:43:55.136Z,2.40
2023-03-01T13:53:28.027Z,0.50
2023-03-01T13:56:36.087Z,0.57
2023-03-01T14:02:37.899Z,0.32
2023-03-01T14:05:05.516Z,0.65
2023-03-01T14:10:38.392Z,0.40
2023-03-01T14:13:45.119Z,1.33
2023-03-01T14:16:28.856Z,0.95
2023-03-01T14:20:08.512Z,0.95
2023-03-01T14:24:04.907Z,1.10
2023-03-01T14:25:37.394Z,0.68
2023-03-01T14:28:26.193Z,1.05
2023-03-01T14:30:58.754Z,0.82
2023-03-01T14:33:53.871Z,0.80
2023-03-01T14:36:28.797Z,1.10
2023-03-01T14:39:06.481Z,1.20
2023-03-01T14:41:37.307Z,1.58
2023-03-01T14:44:38.674Z,1.38
2023-03-01T14:47:14.825Z,0.80
2023-03-01T14:49:42.956Z,1.33
2023-03-01T14:52:24.383Z,0.85
2023-03-01T14:54:56.033Z,1.83
2023-03-01T15:00:32.229Z,1.80
2023-03-01T15:06:52.255Z,0.95
2023-03-01T15:09:20.242Z,1.38
2023-03-01T15:16:32.784Z,1.75
2023-03-01T15:19:14.130Z,0.85
2023-03-01T15:22:50.061Z,1.02
2023-03-01T15:25:58.295Z,0.90
2023-03-01T15:31:41.952Z,2.10
2023-03-01T15:34:24.154Z,2.10
2023-03-01T15:36:56.125Z,1.98
2023-03-01T15:40:02.851Z,1.90
2023-03-01T15:42:30.217Z,1.75
2023-03-01T15:45:18.397Z,1.02
2023-03-01T15:48:43.437Z,2.60
2023-03-01T15:51:41.528Z,3.95
2023-03-01T15:54:25.133Z,1.35
2023-03-01T15:56:52.035Z,1.33
2023-03-01T16:03:59.989Z,1.80
2023-03-01T16:06:30.385Z,1.20
2023-03-01T16:12:29.201Z,1.70
2023-03-01T16:16:04.946Z,1.38
2023-03-01T16:17:50.268Z,1.83
2023-03-01T16:20:27.350Z,2.03
2023-03-01T16:22:57.128Z,1.00
2023-03-01T16:25:31.263Z,2.25
2023-03-01T16:28:48.576Z,1.20
2023-03-01T16:34:26.091Z,1.40
2023-03-01T16:37:03.788Z,1.48
2023-03-01T16:45:43.091Z,1.83
2023-03-01T16:48:38.669Z,1.33
2023-03-01T16:51:42.470Z,1.48
2023-03-01T16:54:48.777Z,1.75
2023-03-01T16:57:35.396Z,1.65
2023-03-01T17:00:07.816Z,1.50
2023-03-01T17:02:52.732Z,1.73
2023-03-01T17:05:25.144Z,1.77
2023-03-01T17:07:55.792Z,1.98
2023-03-01T17:10:25.875Z,2.05
2023-03-01T17:12:55.016Z,2.13
2023-03-01T17:15:36.120Z,1.95
2023-03-01T17:18:46.784Z,1.45
2023-03-01T17:21:20.199Z,2.10
2023-03-01T17:33:10.825Z,1.70
2023-03-01T17:34:48.813Z,2.00
2023-03-01T17:38:13.591Z,1.77
2023-03-01T17:40:48.862Z,2.03
2023-03-01T17:43:28.391Z,1.73
2023-03-01T17:46:00.071Z,1.75
2023-03-01T17:48:29.835Z,2.15
2023-03-01T17:50:57.437Z,2.15
2023-03-01T17:53:24.533Z,2.55
2023-03-01T17:56:58.590Z,1.90
2023-03-01T17:59:34.807Z,2.20
2023-03-01T18:02:06.137Z,2.35
2023-03-01T18:07:23.812Z,1.95
2023-03-01T18:10:12.847Z,1.98
2023-03-01T18:12:42.798Z,2.05
2023-03-01T18:18:38.680Z,1.88
2023-03-01T18:21:09.848Z,2.35
2023-03-01T18:26:28.125Z,1.77
2023-03-01T18:29:03.660Z,2.45
2023-03-01T18:31:33.837Z,2.25
2023-03-01T18:34:03.724Z,1.80
2023-03-01T18:36:36.345Z,1.95
2023-03-01T18:39:11.160Z,2.33
2023-03-01T18:42:27.956Z,3.03
2023-03-01T18:45:00.703Z,2.92
2023-03-01T18:47:39.726Z,3.15
2023-03-01T18:50:21.626Z,2.78
2023-03-01T18:52:54.360Z,2.75
2023-03-01T18:55:33.973Z,2.10
2023-03-01T18:58:30.733Z,2.63
2023-03-01T19:03:48.778Z,2.13
2023-03-01T19:06:16.520Z,1.80
2023-03-01T19:08:50.749Z,3.13
2023-03-01T19:11:33.505Z,2.35
2023-03-01T19:14:04.977Z,2.53
2023-03-01T19:16:46.475Z,2.90
2023-03-01T19:26:57.618Z,3.15
2023-03-01T19:29:24.490Z,3.80
2023-03-01T19:31:55.520Z,2.80
2023-03-01T19:34:24.646Z,3.53
2023-03-01T19:40:06.453Z,3.70
2023-03-01T19:45:45.557Z,5.38
2023-03-01T19:48:42.924Z,4.30
2023-03-01T19:53:46.193Z,3.15
2023-03-01T19:56:40.100Z,4.45
2023-03-01T20:01:48.726Z,5.22
2023-03-01T20:04:15.493Z,3.97
2023-03-01T20:09:48.374Z,4.50
2023-03-01T20:12:19.423Z,3.38
2023-03-01T20:14:52.321Z,4.43
2023-03-01T20:17:19.120Z,4.43
2023-03-01T20:19:49.515Z,3.70
2023-03-01T20:22:37.832Z,4.75
2023-03-01T20:25:20.713Z,4.10
2023-03-01T20:28:52.059Z,4.53
2023-03-01T20:34:34.337Z,5.47
2023-03-01T20:37:36.346Z,3.50
2023-03-01T20:40:47.201Z,4.35
2023-03-01T20:43:34.943Z,3.63
2023-03-01T20:48:35.596Z,3.28
2023-03-01T20:51:07.781Z,4.05
2023-03-01T20:53:35.139Z,3.78
2023-03-01T20:56:17.536Z,5.47
2023-03-01T20:58:44.628Z,4.13
2023-03-01T21:01:16.839Z,4.07
2023-03-01T21:03:45.280Z,4.80
2023-03-01T21:06:15.898Z,4.00
2023-03-01T21:08:43.266Z,3.78
2023-03-01T21:11:11.092Z,3.40
2023-03-01T21:13:46.141Z,4.60
2023-03-01T21:16:17.138Z,3.97
2023-03-01T21:18:44.250Z,3.80
2023-03-01T21:21:19.885Z,4.23
2023-03-01T21:23:49.292Z,3.90
2023-03-01T21:26:21.275Z,4.38
2023-03-01T21:28:58.831Z,3.72
2023-03-01T21:31:38.071Z,3.10
2023-03-01T21:34:06.972Z,3.50
2023-03-01T21:36:37.624Z,2.80
2023-03-01T21:39:10.264Z,2.97
2023-03-01T21:41:39.140Z,2.53
2023-03-01T21:44:28.903Z,3.75
2023-03-01T21:46:56.505Z,3.35
2023-03-01T21:49:23.513Z,2.22
2023-03-01T21:51:56.669Z,2.90
2023-03-01T21:54:27.412Z,2.35
2023-03-01T21:57:07.019Z,2.45
2023-03-01T22:02:24.665Z,2.53
2023-03-01T22:08:45.383Z,2.60
2023-03-01T22:14:08.411Z,3.30
2023-03-01T22:19:50.104Z,1.88
2023-03-01T22:22:21.835Z,2.63
2023-03-01T22:24:51.978Z,1.88
2023-03-01T22:28:17.922Z,1.88
2023-03-01T22:33:52.585Z,2.42
2023-03-01T22:36:26.709Z,2.42
2023-03-01T22:39:05.314Z,3.10
2023-03-01T22:41:47.834Z,2.38
2023-03-01T22:44:20.840Z,2.17
2023-03-01T22:46:58.616Z,1.90
2023-03-01T22:52:08.307Z,1.58
2023-03-01T22:54:50.052Z,1.70
2023-03-01T22:57:19.844Z,1.25
2023-03-01T22:59:51.382Z,2.25
2023-03-01T23:02:43.380Z,2.35
2023-03-01T23:05:13.052Z,1.77
2023-03-01T23:07:40.700Z,1.70
2023-03-01T23:10:18.143Z,2.78
2023-03-01T23:12:49.245Z,2.60
2023-03-01T23:15:17.349Z,2.78
2023-03-01T23:20:16.821Z,3.33
2023-03-01T23:23:50.536Z,3.65
2023-03-01T23:25:59.699Z,2.97
2023-03-01T23:28:34.125Z,3.88
2023-03-01T23:31:07.690Z,2.83
2023-03-01T23:34:25.999Z,2.40
2023-03-01T23:40:07.908Z,2.85
2023-03-01T23:42:39.401Z,2.45
2023-03-01T23:45:26.282Z,3.58
2023-03-01T23:48:03.649Z,3.28
2023-03-01T23:50:30.289Z,2.85
2023-03-01T23:52:57.408Z,3.10
2023-03-01T23:55:26.445Z,2.97
2023-03-01T23:58:02.618Z,2.33
